Nearby METAR Reports

 

KSJC - San Jose, California, USA
Distance from station: NE 9mi, 14km
Updated: Sun, 17-Jan-2021 6:53am PST
Few Clouds
Few Clouds
 Wind from calm
Wind: Calm
Temperature: 46°F , 8°C
Dew Point: 43°F , 6°C
Humidity: 87%
Barometer: 30.13 inHg , 1020.3 hPa
Clouds: Few Clouds
Visibility: 10 miles , 16 km
Cloud details: Few Clouds 8000 ft
2021/01/17 14:53 KSJC 171453Z 00000KT 10SM FEW080 08/06 A3013 RMK AO2 SLP202 T00780061 53003
KNUQ - Moffett Nas/Mtn, California, USA
Distance from station: N 9mi, 14km
Updated: Sun, 17-Jan-2021 7:15am PST
Clear
Clear
 Wind from calm
Wind: Calm
Temperature: 46°F , 8°C
Dew Point: 43°F , 6°C
Humidity: 87%
Barometer: 30.13 inHg , 1020.3 hPa
Clouds: Clear
Visibility: 10 miles , 16 km
2021/01/17 15:15 KNUQ 171515Z AUTO 00000KT 10SM CLR 08/06 A3013 RMK AO2
 
KPAO - Palo Alto, California, USA
Distance from station: NNW 14mi, 23km
Updated: Sat, 16-Jan-2021 8:47pm PST
NOT Current
Clear
Clear
 Wind from NNW
Wind: NNW 5 mph , 7 km/h
Temperature: 52°F , 11°C
Dew Point: 48°F , 9°C
Humidity: 88%
Barometer: 30.14 inHg , 1020.7 hPa
Clouds: Clear
Visibility: 10 miles , 16 km
2021/01/17 04:47 KPAO 170447Z 33004KT 10SM SKC 11/09 A3014 RMK LAST
KRHV - San Jose/Reid, California, USA
Distance from station: ENE 12mi, 19km
Updated: Sun, 17-Jan-2021 7:00am PST
Clear
Clear
 Wind from calm
Wind: Calm
Temperature: 45°F , 7°C
Dew Point: 43°F , 6°C
Humidity: 93%
Barometer: 30.14 inHg , 1020.7 hPa
Clouds: Clear
Visibility: 10 miles , 16 km
2021/01/17 15:00 KRHV 171500Z 00000KT 10SM SKC 07/06 A3014
 
KOAK - Oakland, California, USA
Distance from station: NNW 31mi, 50km
Updated: Sun, 17-Jan-2021 6:53am PST
Few Clouds
Few Clouds
 Wind from calm
Wind: Calm
Temperature: 52°F , 11°C
Dew Point: 48°F , 9°C
Humidity: 88%
Barometer: 30.14 inHg , 1020.7 hPa
Clouds: Few Clouds
Visibility: 10 miles , 16 km
Cloud details: Few Clouds 30000 ft
2021/01/17 14:53 KOAK 171453Z 00000KT 10SM FEW300 11/09 A3014 RMK AO2 SLP205 T01110089 53001
KSQL - San Carlos Airpo, California, USA
Distance from station: NW 21mi, 34km
Updated: Sun, 17-Jan-2021 6:55am PST
Clear
Clear
 Wind from SW
Wind: SW 3 mph , 6 km/h
Temperature: 54°F , 12°C
Dew Point: 41°F , 5°C
Humidity: 63%
Barometer: 30.14 inHg , 1020.7 hPa
Clouds: Clear
Visibility: 10 miles , 16 km
2021/01/17 14:55 KSQL 171455Z AUTO 23003KT 10SM CLR 12/05 A3014 RMK AO2
 
KSFO - San Francisco, California, USA
Distance from station: NW 30mi, 49km
Updated: Sun, 17-Jan-2021 6:56am PST
Few Clouds
Few Clouds
 Wind from NNE
Wind: NNE 3 mph , 6 km/h
Temperature: 54°F , 12°C
Dew Point: 45°F , 7°C
Humidity: 72%
Barometer: 30.12 inHg , 1020 hPa
Clouds: Few Clouds
Visibility: 10 miles , 16 km
Cloud details: Few Clouds 20000 ft
2021/01/17 14:56 KSFO 171456Z 03003KT 10SM FEW200 12/07 A3012 RMK AO2 SLP200 T01220067 53001
KE16 - San Martin, California, USA
Distance from station: ESE 27mi, 43km
Updated: Sun, 17-Jan-2021 7:15am PST
Clear
Clear
 Wind from calm
Wind: Calm
Temperature: 41°F , 5°C
Dew Point: 39°F , 4°C
Humidity: 93%
Barometer: 30.16 inHg , 1021.3 hPa
Clouds: Clear
Visibility: 10 miles , 16 km
2021/01/17 15:15 KE16 171515Z AUTO 00000KT 10SM CLR 05/04 A3016 RMK AO2 PWINO PNO
 
KWVI - Watsonville, California, USA
Distance from station: SSE 27mi, 44km
Updated: Sun, 17-Jan-2021 6:53am PST
Clear
Clear
 Wind from NW
Wind: NW 3 mph , 6 km/h
Temperature: 46°F , 8°C
Dew Point: 43°F , 6°C
Humidity: 87%
Barometer: 30.11 inHg , 1019.6 hPa
Clouds: Clear
Visibility: 10 miles , 16 km
2021/01/17 14:53 KWVI 171453Z AUTO 32003KT 10SM CLR 08/06 A3011 RMK AO2 SLP196 T00830061 53002
KHAF - Half Moon Bay, California, USA
Distance from station: WNW 31mi, 50km
Updated: Sun, 17-Jan-2021 7:15am PST
Clear
Clear
 Wind from S
Wind: S 5 mph , 7 km/h
Temperature: 63°F , 17°C
Dew Point: 37°F , 3°C
Humidity: 39%
Barometer: 30.11 inHg , 1019.6 hPa
Clouds: Clear
Visibility: 10 miles , 16 km
2021/01/17 15:15 KHAF 171515Z AUTO 17004KT 10SM CLR 17/03 A3011 RMK AO2
 
KHWD - Hayward, California, USA
Distance from station: N 28mi, 44km
Updated: Sun, 17-Jan-2021 6:54am PST
Clear
Clear
 Wind from SE
Wind: SE 3 mph , 6 km/h
Temperature: 46°F , 8°C
Dew Point: 45°F , 7°C
Humidity: 93%
Barometer: 30.13 inHg , 1020.3 hPa
Clouds: Clear
Visibility: 10 miles , 16 km
2021/01/17 14:54 KHWD 171454Z 14003KT 10SM CLR 08/07 A3013 RMK AO2 SLP211 T00830072 53002
KLVK - Livermore, California, USA
Distance from station: NNE 31mi, 51km
Updated: Sun, 17-Jan-2021 6:53am PST
Clear
Clear
 Wind from ENE
Wind: ENE 6 mph , 9 km/h
Temperature: 46°F , 8°C
Wind Chill: 43°F , 6°C
Dew Point: 39°F , 4°C
Humidity: 76%
Barometer: 30.14 inHg , 1020.7 hPa
Clouds: Clear
Visibility: 10 miles , 16 km
2021/01/17 14:53 KLVK 171453Z AUTO 07005KT 10SM CLR 08/04 A3014 RMK AO2 SLP203 T00830039 53005